Time;durP1;ratioP1;P1;durP2;ratioP2;P2;SDS_P1;SDS_P2;PMS_P1;PMS_P2;Temp;Humidity;BMP_temperature;BMP_pressure;BME280_temperature;BME280_humidity;BME280_pressure;Samples;Min_cycle;Max_cycle;Signal;HPM_P1;HPM_P2
2022/10/12 00:01:19;;;;;;;7.82;1.42;;;;;;;10.68;100.00;100562.84;5062918;28;20039;-88
2022/10/12 00:03:49;;;;;;;10.55;1.83;;;;;;;10.71;100.00;100567.00;5059555;28;20028;-90
2022/10/12 00:06:22;;;;;;;7.22;1.27;;;;;;;10.75;100.00;100566.56;5059076;28;20038;-89
2022/10/12 00:08:54;;;;;;;9.13;1.35;;;;;;;10.77;100.00;100559.34;5060089;28;20423;-90
2022/10/12 00:11:25;;;;;;;8.73;1.30;;;;;;;10.78;100.00;100550.41;5076168;28;20080;-90
2022/10/12 00:13:54;;;;;;;12.80;2.08;;;;;;;10.79;100.00;100549.44;5079216;28;20040;-92
2022/10/12 00:16:24;;;;;;;10.00;1.50;;;;;;;10.83;100.00;100544.69;5059382;28;20046;-89
2022/10/12 00:18:53;;;;;;;7.38;1.70;;;;;;;10.86;100.00;100557.63;5071867;28;20103;-92
2022/10/12 00:21:24;;;;;;;13.77;1.83;;;;;;;10.86;100.00;100541.75;5063028;28;20039;-90
2022/10/12 00:23:52;;;;;;;8.38;1.50;;;;;;;10.88;100.00;100534.53;5062210;28;20032;-88
2022/10/12 00:26:22;;;;;;;8.07;1.55;;;;;;;10.91;100.00;100536.88;5063530;28;20039;-88
2022/10/12 00:28:59;;;;;;;12.75;1.67;;;;;;;10.95;100.00;100529.50;5076681;28;20024;-89
2022/10/12 00:31:30;;;;;;;10.52;1.45;;;;;;;10.87;100.00;100522.28;5075558;28;20484;-91
2022/10/12 00:34:02;;;;;;;9.38;1.60;;;;;;;10.94;100.00;100522.53;5064667;28;20066;-87
2022/10/12 00:36:34;;;;;;;11.70;1.42;;;;;;;10.94;100.00;100522.53;5083833;28;20042;-89
2022/10/12 00:39:04;;;;;;;8.93;1.42;;;;;;;10.95;100.00;100512.78;5059514;28;20035;-91
2022/10/12 00:41:39;;;;;;;8.27;1.52;;;;;;;10.97;100.00;100522.25;5077965;28;21088;-91
2022/10/12 00:44:40;;;;;;;15.13;1.48;;;;;;;10.95;100.00;100524.22;5079106;28;20491;-89
2022/10/12 00:47:15;;;;;;;11.05;1.60;;;;;;;10.95;100.00;100518.91;5071921;28;20034;-89
2022/10/12 00:49:45;;;;;;;11.82;1.70;;;;;;;10.96;100.00;100515.28;5092439;28;20031;-92
2022/10/12 00:52:18;;;;;;;13.70;2.42;;;;;;;10.99;100.00;100525.56;5058175;28;20125;-89
2022/10/12 00:54:51;;;;;;;17.70;2.00;;;;;;;11.06;100.00;100531.13;5057086;28;20061;-88
2022/10/12 00:57:22;;;;;;;7.68;1.25;;;;;;;11.03;100.00;100519.03;5055832;28;20041;-90
2022/10/12 01:00:15;;;;;;;13.63;2.22;;;;;;;11.04;100.00;100511.91;5075368;28;20035;-88
2022/10/12 01:02:48;;;;;;;8.98;1.35;;;;;;;11.04;100.00;100506.63;5058771;28;20119;-91
2022/10/12 01:05:19;;;;;;;11.13;1.40;;;;;;;11.07;100.00;100505.53;5055213;28;20521;-90
2022/10/12 01:07:49;;;;;;;10.48;1.90;;;;;;;11.06;100.00;100502.03;5058636;28;20035;-90
2022/10/12 01:10:18;;;;;;;15.55;1.88;;;;;;;11.09;100.00;100492.97;5071546;28;20131;-90
2022/10/12 01:12:49;;;;;;;8.40;1.52;;;;;;;11.12;100.00;100503.25;5055439;28;20059;-91
2022/10/12 01:15:19;;;;;;;15.20;2.00;;;;;;;11.13;100.00;100500.44;5071861;28;20067;-88
2022/10/12 01:18:08;;;;;;;10.77;1.77;;;;;;;11.11;100.00;100491.84;5056163;28;20126;-90
2022/10/12 01:21:06;;;;;;;13.18;2.42;;;;;;;11.11;100.00;100498.94;5071763;28;20088;-90
2022/10/12 01:23:46;;;;;;;16.58;2.15;;;;;;;11.11;100.00;100499.78;5069079;28;20032;-91
2022/10/12 01:26:44;;;;;;;11.25;1.35;;;;;;;11.15;100.00;100490.56;5075670;28;20514;-92
2022/10/12 01:29:33;;;;;;;10.30;1.92;;;;;;;11.13;100.00;100494.34;5057853;28;20047;-90
2022/10/12 01:32:37;;;;;;;14.43;2.17;;;;;;;11.15;100.00;100484.44;5089720;28;20035;-89
2022/10/12 01:35:23;;;;;;;14.35;1.67;;;;;;;11.18;100.00;100488.63;5053198;28;20039;-89
2022/10/12 01:38:07;;;;;;;13.15;1.90;;;;;;;11.20;100.00;100484.00;5051418;28;20429;-91
2022/10/12 01:40:46;;;;;;;13.30;1.77;;;;;;;11.21;100.00;100481.19;5056845;28;20074;-89
2022/10/12 01:43:22;;;;;;;18.65;2.13;;;;;;;11.23;100.00;100478.41;5055939;28;20032;-89
2022/10/12 01:45:51;;;;;;;12.35;1.42;;;;;;;11.24;100.00;100480.94;5062448;28;20044;-89
2022/10/12 01:48:19;;;;;;;13.02;2.05;;;;;;;11.25;100.00;100471.16;5070751;28;20081;-89
2022/10/12 01:50:55;;;;;;;12.32;1.55;;;;;;;11.26;100.00;100457.78;5058931;28;20028;-89
2022/10/12 01:53:46;;;;;;;13.02;1.48;;;;;;;11.27;100.00;100464.75;5058846;28;20082;-89
2022/10/12 01:56:24;;;;;;;10.93;1.55;;;;;;;11.28;100.00;100457.63;5058207;28;20040;-88
2022/10/12 01:59:37;;;;;;;9.73;1.45;;;;;;;11.29;100.00;100454.03;5062179;28;20044;-90
2022/10/12 02:02:14;;;;;;;14.15;1.90;;;;;;;11.30;100.00;100442.44;5070872;28;20471;-89
2022/10/12 02:04:53;;;;;;;10.18;1.27;;;;;;;11.31;100.00;100446.75;5068901;28;20109;-89
2022/10/12 02:07:31;;;;;;;6.70;1.00;;;;;;;11.33;100.00;100446.59;5093338;28;20031;-88
2022/10/12 02:10:02;;;;;;;8.05;1.33;;;;;;;11.31;100.00;100440.66;5066130;28;20543;-89
2022/10/12 02:12:33;;;;;;;14.27;1.90;;;;;;;11.34;100.00;100443.00;5082183;28;20046;-89
2022/10/12 02:18:49;;;;;;;6.55;1.15;;;;;;;11.35;100.00;100428.75;5093942;28;20484;-89
2022/10/12 02:21:23;;;;;;;5.22;1.05;;;;;;;11.33;100.00;100428.91;5058751;28;20552;-91
2022/10/12 02:23:55;;;;;;;6.50;1.00;;;;;;;11.37;100.00;100437.41;5063969;28;20073;-91
2022/10/12 02:26:23;;;;;;;6.95;0.90;;;;;;;11.39;100.00;100432.75;5066180;28;20035;-89
2022/10/12 02:28:52;;;;;;;3.80;0.52;;;;;;;11.39;100.00;100433.59;5068813;28;20086;-89
2022/10/12 02:31:36;;;;;;;7.75;1.10;;;;;;;11.40;100.00;100418.56;5094325;28;20028;-91
2022/10/12 02:34:18;;;;;;;6.88;1.15;;;;;;;11.40;100.00;100422.03;5105009;27;20034;-89
2022/10/12 02:37:03;;;;;;;8.18;0.75;;;;;;;11.39;100.00;100409.78;5078391;28;20096;-87
2022/10/12 02:39:44;;;;;;;6.43;0.63;;;;;;;11.44;100.00;100408.50;5067411;28;20047;-91
2022/10/12 02:42:19;;;;;;;4.10;0.82;;;;;;;11.47;100.00;100401.09;5074124;27;20117;-90
2022/10/12 02:44:47;;;;;;;7.40;0.80;;;;;;;11.44;100.00;100403.19;5065983;28;20391;-91
2022/10/12 02:47:16;;;;;;;10.82;0.95;;;;;;;11.44;100.00;100398.75;5066674;28;20468;-89
2022/10/12 02:49:46;;;;;;;4.85;0.90;;;;;;;11.44;100.00;100401.41;5081420;28;20080;-90
2022/10/12 02:52:15;;;;;;;6.97;0.98;;;;;;;11.49;100.00;100400.94;5069200;28;20038;-90
2022/10/12 02:54:43;;;;;;;5.90;0.90;;;;;;;11.51;100.00;100404.28;5063793;28;20244;-90
2022/10/12 02:57:13;;;;;;;3.35;0.55;;;;;;;11.52;100.00;100403.28;5079218;28;20047;-90
2022/10/12 02:59:41;;;;;;;3.33;0.60;;;;;;;11.50;100.00;100390.19;5061239;28;20035;-90
2022/10/12 03:02:09;;;;;;;2.15;0.50;;;;;;;11.49;100.00;100388.53;5066661;28;20027;-91
2022/10/12 03:04:39;;;;;;;2.50;0.52;;;;;;;11.56;100.00;100391.44;5063892;28;20035;-88
2022/10/12 03:07:09;;;;;;;4.82;0.57;;;;;;;11.53;100.00;100387.25;5081101;28;20499;-88
2022/10/12 03:09:39;;;;;;;5.75;0.82;;;;;;;11.54;100.00;100374.84;5062460;28;20036;-90
2022/10/12 03:12:08;;;;;;;3.28;0.93;;;;;;;11.57;100.00;100384.28;5064000;28;20032;-91
2022/10/12 03:14:36;;;;;;;5.72;0.50;;;;;;;11.59;100.00;100383.19;5067816;28;20040;-92
2022/10/12 03:17:05;;;;;;;7.15;1.13;;;;;;;11.62;100.00;100384.69;5044416;28;20043;-89
2022/10/12 03:19:32;;;;;;;2.50;0.57;;;;;;;11.61;100.00;100370.59;5047198;28;20115;-88
2022/10/12 03:22:00;;;;;;;2.38;0.40;;;;;;;11.63;100.00;100386.34;5046446;28;20114;-90
2022/10/12 03:24:28;;;;;;;4.93;0.52;;;;;;;11.61;100.00;100373.25;5063128;28;20108;-90
2022/10/12 03:26:57;;;;;;;2.40;0.30;;;;;;;11.66;100.00;100384.22;5043181;28;20384;-88
2022/10/12 03:29:25;;;;;;;6.53;0.80;;;;;;;11.69;100.00;100371.66;5042122;28;20039;-90
2022/10/12 03:31:53;;;;;;;2.67;0.55;;;;;;;11.70;100.00;100370.69;5061106;28;20483;-88
2022/10/12 03:34:21;;;;;;;4.43;0.85;;;;;;;11.68;100.00;100367.34;5044651;28;20195;-90
2022/10/12 03:36:51;;;;;;;2.58;0.30;;;;;;;11.69;100.00;100371.66;5057041;28;20048;-89
2022/10/12 03:39:21;;;;;;;2.75;0.30;;;;;;;11.72;100.00;100376.66;5078066;28;21034;-91
2022/10/12 03:41:50;;;;;;;3.25;0.40;;;;;;;11.75;100.00;100371.06;5043681;28;20388;-90
2022/10/12 03:44:17;;;;;;;3.00;0.32;;;;;;;11.73;100.00;100360.63;5055804;28;20543;-89
2022/10/12 03:46:45;;;;;;;5.35;0.47;;;;;;;11.78;100.00;100370.75;5046502;28;20074;-88
2022/10/12 03:49:13;;;;;;;2.47;0.57;;;;;;;11.79;100.00;100367.09;5058109;28;20473;-89
2022/10/12 03:51:42;;;;;;;2.10;0.32;;;;;;;11.78;100.00;100366.25;5073046;28;20040;-89
2022/10/12 03:54:09;;;;;;;4.32;0.70;;;;;;;11.77;100.00;100369.91;5041569;28;20032;-90
2022/10/12 03:56:38;;;;;;;1.48;0.32;;;;;;;11.78;100.00;100373.41;5040485;28;20506;-89
2022/10/12 03:59:07;;;;;;;3.22;0.30;;;;;;;11.78;100.00;100368.09;5048422;28;20032;-90
2022/10/12 04:01:35;;;;;;;1.63;0.30;;;;;;;11.76;100.00;100367.41;5049744;28;20418;-88
2022/10/12 04:04:03;;;;;;;5.75;0.40;;;;;;;11.73;100.00;100365.91;5049111;28;20028;-88
2022/10/12 04:06:31;;;;;;;5.05;0.40;;;;;;;11.77;100.00;100380.50;5059731;28;20031;-90
2022/10/12 04:08:59;;;;;;;3.72;0.30;;;;;;;11.79;100.00;100378.53;5043071;28;20043;-90
2022/10/12 04:11:27;;;;;;;3.85;0.30;;;;;;;11.78;100.00;100379.50;5048002;28;20085;-88
2022/10/12 04:13:56;;;;;;;1.23;0.22;;;;;;;11.79;100.00;100378.53;5076737;28;20040;-87
2022/10/12 04:16:24;;;;;;;2.25;0.30;;;;;;;11.77;100.00;100385.78;5060098;28;20028;-89
2022/10/12 04:18:52;;;;;;;0.77;0.10;;;;;;;11.81;100.00;100382.84;5076353;28;20128;-90
2022/10/12 04:21:22;;;;;;;1.75;0.10;;;;;;;11.83;100.00;100394.13;5061877;28;20024;-92
2022/10/12 04:23:51;;;;;;;1.25;0.30;;;;;;;11.83;100.00;100391.47;5068710;28;20038;-91
2022/10/12 04:26:19;;;;;;;1.05;0.20;;;;;;;11.79;100.00;100396.22;5055567;28;20035;-90
2022/10/12 04:28:48;;;;;;;4.05;0.10;;;;;;;11.85;100.00;100406.22;5086213;28;20036;-89
2022/10/12 04:31:16;;;;;;;1.23;0.10;;;;;;;11.85;100.00;100406.22;5043623;28;20085;-90
2022/10/12 04:33:45;;;;;;;0.20;0.10;;;;;;;11.88;100.00;100407.72;5050924;28;20127;-92
2022/10/12 04:36:13;;;;;;;1.40;0.20;;;;;;;11.83;100.00;100402.06;5061958;28;20543;-91
2022/10/12 04:38:40;;;;;;;2.30;0.30;;;;;;;11.86;100.00;100410.53;5054778;28;20111;-90
2022/10/12 04:41:08;;;;;;;0.25;0.10;;;;;;;11.87;100.00;100398.09;5067564;28;20100;-92
2022/10/12 04:43:36;;;;;;;1.00;0.10;;;;;;;11.90;100.00;100397.78;5051833;28;20070;-92
2022/10/12 04:46:04;;;;;;;0.45;0.10;;;;;;;11.89;100.00;100407.59;5055403;28;20515;-90
2022/10/12 04:48:33;;;;;;;0.75;0.20;;;;;;;11.89;100.00;100396.97;5075295;28;20040;-91
2022/10/12 04:51:00;;;;;;;2.38;0.10;;;;;;;11.88;100.00;100397.13;5058872;28;20039;-88
2022/10/12 04:53:29;;;;;;;0.05;0.00;;;;;;;11.89;100.00;100383.75;5062307;28;20479;-91
2022/10/12 04:55:57;;;;;;;0.10;0.10;;;;;;;11.91;100.00;100389.69;5054881;28;20445;-90
2022/10/12 04:58:26;;;;;;;0.68;0.10;;;;;;;11.91;100.00;100376.44;5059286;28;20070;-91
2022/10/12 05:00:55;;;;;;;1.35;0.10;;;;;;;11.91;100.00;100376.44;5022657;28;20111;-91
2022/10/12 05:03:23;;;;;;;1.70;0.10;;;;;;;11.91;100.00;100371.16;5039097;28;20090;-91
2022/10/12 05:05:53;;;;;;;0.20;0.10;;;;;;;11.92;100.00;100374.66;5050879;28;20040;-89
2022/10/12 05:08:22;;;;;;;0.60;0.55;;;;;;;11.94;100.00;100372.69;5025582;28;20036;-89
2022/10/12 05:10:50;;;;;;;0.08;0.00;;;;;;;11.94;100.00;100391.22;5023394;28;20067;-90
2022/10/12 05:13:19;;;;;;;0.00;0.00;;;;;;;11.96;100.00;100399.00;5024612;28;20040;-90
2022/10/12 05:15:46;;;;;;;1.45;0.30;;;;;;;11.97;100.00;100396.22;5043907;28;20481;-91
2022/10/12 05:18:15;;;;;;;0.15;0.00;;;;;;;11.99;100.00;100396.06;5042806;28;20044;-88
2022/10/12 05:20:44;;;;;;;0.10;0.00;;;;;;;11.99;100.00;100407.47;5029063;28;20036;-91
2022/10/12 05:23:11;;;;;;;2.03;0.10;;;;;;;12.01;100.00;100405.50;5044327;28;20029;-89
2022/10/12 05:25:40;;;;;;;1.83;0.03;;;;;;;12.00;100.00;100401.19;5055303;28;20492;-89
2022/10/12 05:28:08;;;;;;;0.50;0.10;;;;;;;12.03;100.00;100405.34;5022863;28;20052;-88
2022/10/12 05:30:35;;;;;;;0.50;0.10;;;;;;;12.01;100.00;100404.66;5034289;28;20112;-88
2022/10/12 05:33:04;;;;;;;0.50;0.10;;;;;;;12.01;100.00;100397.56;5035179;28;20032;-91
2022/10/12 05:35:32;;;;;;;0.47;0.03;;;;;;;12.00;100.00;100398.56;5025543;28;20040;-93
2022/10/12 05:38:02;;;;;;;0.47;0.10;;;;;;;12.00;100.00;100385.31;5037237;28;20036;-92
2022/10/12 05:40:31;;;;;;;0.17;0.03;;;;;;;11.98;100.00;100376.66;5031885;28;20365;-94
2022/10/12 05:42:59;;;;;;;4.13;0.20;;;;;;;11.98;100.00;100381.13;5042859;28;20063;-90
2022/10/12 05:45:27;;;;;;;0.00;0.00;;;;;;;11.99;100.00;100373.03;5022971;28;20115;-94
2022/10/12 05:47:55;;;;;;;0.52;0.10;;;;;;;11.94;100.00;100375.34;5035633;28;20043;-93
2022/10/12 05:50:23;;;;;;;0.10;0.00;;;;;;;11.97;100.00;100376.81;5037094;28;20492;-92
2022/10/12 05:52:51;;;;;;;1.15;0.10;;;;;;;11.98;100.00;100386.44;5025280;28;20024;-93
2022/10/12 05:55:21;;;;;;;0.25;0.10;;;;;;;11.97;100.00;100376.81;5055047;28;20032;-91
2022/10/12 05:57:48;;;;;;;0.00;0.00;;;;;;;11.99;100.00;100383.63;5029841;28;20563;-92
2022/10/12 06:00:18;;;;;;;0.30;0.10;;;;;;;12.02;100.00;100385.97;5043710;28;20043;-93
2022/10/12 06:02:46;;;;;;;0.90;0.10;;;;;;;12.02;100.00;100385.97;5052997;28;20048;-93
2022/10/12 06:05:14;;;;;;;0.00;0.00;;;;;;;12.04;100.00;100381.34;5038374;28;20032;-93
2022/10/12 06:07:42;;;;;;;0.10;0.03;;;;;;;12.09;100.00;100388.03;5042334;28;20036;-93
2022/10/12 06:10:11;;;;;;;0.35;0.10;;;;;;;12.04;100.00;100377.84;5043254;28;20369;-92
2022/10/12 06:12:39;;;;;;;0.08;0.08;;;;;;;12.07;100.00;100384.69;5033978;28;20037;-92
2022/10/12 06:15:08;;;;;;;2.13;0.10;;;;;;;12.13;100.00;100387.56;5060669;28;20037;-92
2022/10/12 06:17:35;;;;;;;0.10;0.10;;;;;;;12.14;100.00;100397.19;5046325;28;20025;-92
2022/10/12 06:20:06;;;;;;;0.10;0.03;;;;;;;12.18;100.00;100394.22;5038496;28;20028;-91
2022/10/12 06:22:36;;;;;;;0.28;0.10;;;;;;;12.13;100.00;100395.53;5026436;28;20063;-92
2022/10/12 06:25:05;;;;;;;0.40;0.13;;;;;;;12.15;100.00;100400.66;5026392;28;20119;-93
2022/10/12 06:27:33;;;;;;;1.08;0.17;;;;;;;12.14;100.00;100405.13;5024925;28;20386;-92
2022/10/12 06:30:03;;;;;;;3.35;3.15;;;;;;;12.16;100.00;100407.63;5034174;28;20030;-90
2022/10/12 06:32:30;;;;;;;0.50;0.20;;;;;;;12.16;100.00;100402.31;5041397;28;20036;-92
2022/10/12 06:35:00;;;;;;;0.13;0.13;;;;;;;12.20;100.00;100402.84;5041488;28;20044;-92
2022/10/12 06:37:30;;;;;;;0.57;0.15;;;;;;;12.19;100.00;100399.34;5040932;28;20029;-92
2022/10/12 06:40:00;;;;;;;0.35;0.20;;;;;;;12.20;100.00;100395.72;5032089;28;20137;-92
2022/10/12 06:42:30;;;;;;;1.45;0.13;;;;;;;12.22;100.00;100392.91;5038434;28;20056;-92
2022/10/12 06:45:00;;;;;;;1.23;0.10;;;;;;;12.26;100.00;100402.22;5021288;28;20036;-92
2022/10/12 06:47:30;;;;;;;0.70;0.20;;;;;;;12.24;100.00;100402.38;5038000;28;20029;-91
2022/10/12 06:49:59;;;;;;;0.30;0.20;;;;;;;12.26;100.00;100410.97;5028664;28;20028;-93
2022/10/12 06:52:27;;;;;;;0.20;0.20;;;;;;;12.26;100.00;100413.63;5026090;28;20032;-90
2022/10/12 06:54:56;;;;;;;1.27;0.20;;;;;;;12.25;100.00;100411.13;5042884;28;20033;-91
2022/10/12 06:57:23;;;;;;;1.35;0.25;;;;;;;12.25;100.00;100435.00;5045160;28;20071;-92
2022/10/12 06:59:52;;;;;;;1.23;0.20;;;;;;;12.25;100.00;100437.63;5049372;28;20035;-91
2022/10/12 07:02:20;;;;;;;0.43;0.10;;;;;;;12.22;100.00;100430.84;5064104;28;20407;-91
2022/10/12 07:04:53;;;;;;;0.17;0.17;;;;;;;12.28;100.00;100450.56;5017432;28;20119;-91
2022/10/12 07:07:22;;;;;;;0.38;0.30;;;;;;;12.23;100.00;100448.41;5054870;28;20053;-90
2022/10/12 07:09:52;;;;;;;0.82;0.20;;;;;;;12.28;100.00;100458.53;5028028;28;20190;-91
2022/10/12 07:12:19;;;;;;;0.75;0.20;;;;;;;12.24;100.00;100444.78;5025259;28;20028;-92
2022/10/12 07:14:47;;;;;;;6.57;0.52;;;;;;;12.24;100.00;100441.28;5058735;28;20480;-89
2022/10/12 07:17:16;;;;;;;3.70;0.20;;;;;;;12.28;100.00;100455.88;5041865;28;20036;-92
2022/10/12 07:19:44;;;;;;;2.78;0.50;;;;;;;12.23;100.00;100448.41;5056358;28;20040;-91
2022/10/12 07:22:13;;;;;;;2.15;0.50;;;;;;;12.24;100.00;100447.44;5024995;28;20037;-91
2022/10/12 07:24:41;;;;;;;4.75;0.70;;;;;;;12.18;100.00;100447.22;5020722;28;20555;-92
2022/10/12 07:27:10;;;;;;;10.20;0.88;;;;;;;12.19;100.00;100446.22;5026544;28;20036;-89
2022/10/12 07:29:38;;;;;;;4.85;0.57;;;;;;;12.21;100.00;100466.28;5036725;28;20093;-90
2022/10/12 07:32:07;;;;;;;3.25;0.63;;;;;;;12.20;100.00;100454.00;5026046;28;20036;-91
2022/10/12 07:34:35;;;;;;;6.00;0.80;;;;;;;12.15;100.00;100440.41;5039445;28;20386;-90
2022/10/12 07:37:04;;;;;;;5.07;1.20;;;;;;;12.23;100.00;100448.41;5023445;28;20071;-91
2022/10/12 07:39:32;;;;;;;8.80;1.17;;;;;;;12.23;100.00;100452.88;5039402;28;20493;-91
2022/10/12 07:42:02;;;;;;;5.47;0.73;;;;;;;12.24;100.00;100452.72;5057031;28;20048;-88
2022/10/12 07:44:32;;;;;;;9.73;1.05;;;;;;;12.26;100.00;100450.72;5040505;28;20059;-91
2022/10/12 07:47:01;;;;;;;5.32;0.88;;;;;;;12.28;100.00;100447.94;5047176;28;20037;-90
2022/10/12 07:49:28;;;;;;;4.32;0.82;;;;;;;12.30;100.00;100448.63;5046552;28;20037;-90
2022/10/12 07:51:57;;;;;;;3.25;0.65;;;;;;;12.30;100.00;100442.47;5023505;28;20039;-90
2022/10/12 07:54:25;;;;;;;6.07;0.70;;;;;;;12.28;100.00;100447.94;5055871;28;20046;-90
2022/10/12 07:56:54;;;;;;;4.38;0.88;;;;;;;12.31;100.00;100452.91;5055169;28;20040;-88
2022/10/12 07:59:23;;;;;;;8.77;1.20;;;;;;;12.33;100.00;100458.06;5059311;28;20089;-90
2022/10/12 08:01:52;;;;;;;3.95;0.88;;;;;;;12.31;100.00;100463.53;5054937;28;20036;-88
2022/10/12 08:04:20;;;;;;;3.88;0.70;;;;;;;12.32;100.00;100457.25;5049549;28;20042;-88
2022/10/12 08:06:48;;;;;;;6.63;0.77;;;;;;;12.33;100.00;100458.91;5042423;28;20040;-90
2022/10/12 08:09:16;;;;;;;5.28;0.90;;;;;;;12.35;100.00;100467.53;5043663;28;20024;-90
2022/10/12 08:11:45;;;;;;;4.65;0.95;;;;;;;12.34;100.00;100465.03;5078207;28;20039;-91
2022/10/12 08:14:15;;;;;;;10.65;1.55;;;;;;;12.33;100.00;100466.00;5037275;28;20048;-89
2022/10/12 08:16:44;;;;;;;9.82;1.42;;;;;;;12.30;100.00;100453.91;5078162;28;20028;-89
2022/10/12 08:19:12;;;;;;;7.28;1.38;;;;;;;12.27;100.00;100457.72;5084657;28;20024;-90
2022/10/12 08:21:41;;;;;;;6.05;0.93;;;;;;;12.28;100.00;100455.88;5077813;28;20142;-90
2022/10/12 08:24:10;;;;;;;9.93;1.38;;;;;;;12.27;100.00;100463.03;5094294;28;20396;-83
2022/10/12 08:26:39;;;;;;;8.18;1.83;;;;;;;12.28;100.00;100464.66;5058923;28;20036;-85
2022/10/12 08:29:08;;;;;;;13.15;2.08;;;;;;;12.30;100.00;100467.16;5057710;28;20062;-88
2022/10/12 08:31:36;;;;;;;7.05;1.33;;;;;;;12.33;100.00;100468.66;5042116;28;20040;-90
2022/10/12 08:34:05;;;;;;;8.60;1.52;;;;;;;12.34;100.00;100462.41;5057129;28;20084;-91
2022/10/12 08:36:35;;;;;;;9.23;1.52;;;;;;;12.38;100.00;100463.72;5075375;28;20036;-91
2022/10/12 08:39:07;;;;;;;8.13;1.48;;;;;;;12.42;100.00;100474.88;5058563;28;20036;-91
2022/10/12 08:41:46;;;;;;;8.73;1.23;;;;;;;12.47;100.00;100469.94;5056003;28;20028;-90
2022/10/12 08:44:33;;;;;;;6.10;1.30;;;;;;;12.51;100.00;100472.13;5056891;28;20032;-90
2022/10/12 08:47:26;;;;;;;6.10;1.23;;;;;;;12.52;100.00;100479.06;5054936;28;20028;-91
2022/10/12 08:49:54;;;;;;;7.93;1.48;;;;;;;12.50;100.00;100481.03;5075374;28;20753;-83
2022/10/12 08:52:31;;;;;;;10.50;1.85;;;;;;;12.55;100.00;100493.81;5077368;28;20037;-83
2022/10/12 08:55:30;;;;;;;7.78;1.70;;;;;;;12.53;100.00;100493.16;5046989;28;20063;-90
2022/10/12 08:57:57;;;;;;;8.45;1.77;;;;;;;12.51;100.00;100490.69;5026837;28;20047;-92
2022/10/12 09:00:28;;;;;;;6.88;1.65;;;;;;;12.55;100.00;100480.56;5077476;28;20024;-92
2022/10/12 09:03:26;;;;;;;9.75;1.50;;;;;;;12.59;100.00;100489.91;5066980;28;20040;-92
2022/10/12 09:06:08;;;;;;;5.18;1.10;;;;;;;12.64;100.00;100492.91;5043563;28;20067;-90
2022/10/12 09:08:57;;;;;;;11.90;1.67;;;;;;;12.68;100.00;100488.09;5058933;28;20113;-91
2022/10/12 09:11:54;;;;;;;7.60;2.20;;;;;;;12.71;100.00;100486.97;5059228;28;20043;-92
2022/10/12 09:14:36;;;;;;;5.80;1.52;;;;;;;12.71;100.00;100481.69;5071450;28;20040;-91
2022/10/12 09:17:21;;;;;;;11.10;2.15;;;;;;;12.74;100.00;100484.81;5061467;28;20051;-91
2022/10/12 09:20:00;;;;;;;14.32;2.08;;;;;;;12.77;100.00;100486.34;5047520;28;20548;-91
2022/10/12 09:22:29;;;;;;;8.18;1.65;;;;;;;12.78;100.00;100488.84;5044756;28;20040;-92
2022/10/12 09:24:59;;;;;;;9.48;1.92;;;;;;;12.84;100.00;100486.53;5050185;28;20081;-92
2022/10/12 09:27:30;;;;;;;7.35;1.63;;;;;;;12.89;100.00;100490.38;5059355;28;20109;-92
2022/10/12 09:30:03;;;;;;;9.70;1.67;;;;;;;12.92;100.00;100483.91;5077865;28;20040;-93
2022/10/12 09:32:44;;;;;;;10.70;2.42;;;;;;;12.96;100.00;100492.41;5052182;28;20587;-93
2022/10/12 09:35:15;;;;;;;9.18;1.40;;;;;;;12.97;100.00;100491.41;5027328;28;20182;-92
2022/10/12 09:37:50;;;;;;;10.73;1.77;;;;;;;12.97;100.00;100486.94;5053983;28;20605;-92
2022/10/12 09:40:26;;;;;;;15.88;2.05;;;;;;;13.00;100.00;100488.44;5033869;28;20036;-92
2022/10/12 09:42:55;;;;;;;7.65;1.42;;;;;;;12.98;100.00;100483.28;5060987;28;20075;-91
2022/10/12 09:45:25;;;;;;;12.40;1.58;;;;;;;12.99;100.00;100486.78;5050649;28;20510;-93
2022/10/12 09:48:13;;;;;;;8.68;1.73;;;;;;;12.98;100.00;100480.63;5058300;28;20089;-92
2022/10/12 09:51:02;;;;;;;10.75;1.90;;;;;;;13.00;100.00;100477.81;5049629;28;20044;-91
2022/10/12 09:53:33;;;;;;;8.45;1.27;;;;;;;13.02;100.00;100476.69;5045101;28;20045;-93
2022/10/12 09:56:23;;;;;;;7.72;1.58;;;;;;;13.07;100.00;100472.72;5074135;28;20498;-91
2022/10/12 09:59:00;;;;;;;7.35;1.48;;;;;;;13.13;100.00;100477.38;5071398;28;20048;-93
2022/10/12 10:01:35;;;;;;;9.13;1.60;;;;;;;13.19;100.00;100476.72;5066395;28;20131;-92
2022/10/12 10:04:25;;;;;;;9.63;1.77;;;;;;;13.24;100.00;100478.91;5066955;28;20058;-92
2022/10/12 10:06:55;;;;;;;10.10;1.88;;;;;;;13.29;100.00;100479.25;5091877;28;20129;-93
2022/10/12 10:09:33;;;;;;;6.93;1.45;;;;;;;13.37;100.00;100486.41;5060370;28;20135;-92
2022/10/12 10:12:22;;;;;;;6.95;1.42;;;;;;;13.40;100.00;100473.66;5053782;28;20107;-93
2022/10/12 10:14:57;;;;;;;17.52;2.17;;;;;;;13.43;100.00;100458.38;5066448;28;20437;-91
2022/10/12 10:17:34;;;;;;;12.93;2.13;;;;;;;13.41;100.00;100463.84;5043619;28;20101;-92
2022/10/12 10:20:07;;;;;;;17.40;2.10;;;;;;;13.46;100.00;100463.34;5059347;28;20481;-93
2022/10/12 10:22:36;;;;;;;13.57;2.50;;;;;;;13.56;100.00;100469.38;5057987;28;20032;-93
2022/10/12 10:25:05;;;;;;;19.10;2.78;;;;;;;13.63;100.00;100475.69;5054826;28;20036;-91
2022/10/12 10:27:38;;;;;;;10.45;2.55;;;;;;;13.61;100.00;100480.38;5086292;28;20027;-92
2022/10/12 10:30:28;;;;;;;10.52;2.55;;;;;;;13.58;100.00;100486.00;5046866;28;20040;-91
2022/10/12 10:33:19;;;;;;;14.77;2.70;;;;;;;13.57;100.00;100489.63;5071650;28;20032;-91
2022/10/12 10:35:59;;;;;;;15.75;2.85;;;;;;;13.62;100.00;100489.13;5055838;28;20391;-93
2022/10/12 10:38:30;;;;;;;14.90;2.58;;;;;;;13.66;100.00;100490.50;5063831;28;20032;-92
2022/10/12 10:41:04;;;;;;;12.05;2.38;;;;;;;13.70;100.00;100499.78;5053892;28;20040;-92
2022/10/12 10:43:32;;;;;;;14.68;2.25;;;;;;;13.68;100.00;100501.75;5054611;28;20047;-89
2022/10/12 10:46:03;;;;;;;13.07;2.70;;;;;;;13.73;100.00;100512.72;5040379;28;20098;-93
2022/10/12 10:48:50;;;;;;;12.70;2.65;;;;;;;13.68;100.00;100504.41;5044771;28;20089;-93
2022/10/12 10:51:20;;;;;;;11.73;2.75;;;;;;;13.66;100.00;100511.75;5060923;28;20031;-91
2022/10/12 10:53:51;;;;;;;19.80;2.50;;;;;;;13.69;100.00;100511.41;5036600;28;20040;-91
2022/10/12 10:56:24;;;;;;;17.98;2.75;;;;;;;13.70;100.00;100505.09;5072916;28;20114;-89
2022/10/12 10:59:16;;;;;;;13.20;2.83;;;;;;;13.70;100.00;100510.41;5055484;28;20064;-90
2022/10/12 11:01:53;;;;;;;13.38;2.85;;;;;;;13.73;100.00;100518.06;5033833;28;20037;-92
2022/10/12 11:04:24;;;;;;;;;;;;;;;13.63;100.00;100520.03;5068858;28;20043;-93
2022/10/12 11:07:01;;;;;;;13.05;2.40;;;;;;;13.71;100.00;100508.59;5050673;28;19919;-92
2022/10/12 11:09:43;;;;;;;25.30;3.38;;;;;;;13.70;100.00;100515.72;5073444;28;20028;-89
2022/10/12 11:12:34;;;;;;;17.58;2.75;;;;;;;13.66;100.00;100524.19;5043113;28;20036;-92
2022/10/12 11:15:12;;;;;;;21.80;3.38;;;;;;;13.62;100.00;100531.63;5073548;28;20043;-91
2022/10/12 11:17:46;;;;;;;18.92;3.20;;;;;;;13.59;100.00;100532.81;5060918;28;20041;-91
2022/10/12 11:20:38;;;;;;;18.98;3.08;;;;;;;13.58;100.00;100539.13;5038576;28;20039;-92
2022/10/12 11:23:18;;;;;;;17.00;2.95;;;;;;;13.62;100.00;100537.78;5053795;28;20040;-92
2022/10/12 11:26:14;;;;;;;18.17;3.35;;;;;;;13.64;100.00;100534.97;5035251;28;20028;-91
2022/10/12 11:28:44;;;;;;;17.50;3.37;;;;;;;13.67;100.00;100541.75;5021375;28;20041;-91
2022/10/12 11:31:24;;;;;;;20.02;3.92;;;;;;;13.70;100.00;100544.94;5073056;28;20047;-92
2022/10/12 11:33:56;;;;;;;13.30;3.25;;;;;;;13.64;100.00;100549.09;5047388;28;20062;-90
2022/10/12 11:36:29;;;;;;;18.60;3.53;;;;;;;13.61;100.00;100549.41;5063689;28;20497;-90
2022/10/12 11:39:03;;;;;;;25.55;3.78;;;;;;;13.58;100.00;100540.94;5041162;28;20028;-90
2022/10/12 11:41:47;;;;;;;19.52;3.10;;;;;;;13.58;100.00;100541.78;5057579;28;20623;-90
2022/10/12 11:44:22;;;;;;;24.08;4.10;;;;;;;13.56;100.00;100545.56;5050768;28;20032;-90